Time;durP1;ratioP1;P1;durP2;ratioP2;P2;SDS_P1;SDS_P2;PMS_P1;PMS_P2;Temp;Humidity;BMP_temperature;BMP_pressure;BME280_temperature;BME280_humidity;BME280_pressure;Samples;Min_cycle;Max_cycle;Signal;HPM_P1;HPM_P2
2022/06/01 00:00:29;;;;;;;;;;;;;;;25.56;54.51;98602.06;2084496;28;19940;-56
2022/06/01 00:01:30;;;;;;;;;;;;;;;25.55;54.47;98600.41;2084912;28;19971;-54
2022/06/01 00:02:31;;;;;;;;;;;;;;;25.57;54.59;98603.69;2081766;28;19929;-56
2022/06/01 00:03:35;;;;;;;;;;;;;;;25.57;54.66;98602.88;2085277;28;19933;-54
2022/06/01 00:04:35;;;;;;;;;;;;;;;25.57;54.66;98603.69;2084568;28;19929;-54
2022/06/01 00:05:37;;;;;;;;;;;;;;;25.56;54.71;98602.06;2085540;28;19938;-52
2022/06/01 00:06:37;;;;;;;;;;;;;;;25.57;54.46;98602.88;2084410;28;19963;-54
2022/06/01 00:07:39;;;;;;;;;;;;;;;25.56;54.87;98612.91;2087699;28;20399;-56
2022/06/01 00:08:40;;;;;;;;;;;;;;;25.56;54.60;98604.78;2086234;28;20448;-54
2022/06/01 00:09:41;;;;;;;;;;;;;;;25.56;54.83;98606.66;2086046;28;19934;-55
2022/06/01 00:10:42;;;;;;;;;;;;;;;25.55;54.66;98614.00;2082552;28;19987;-54
2022/06/01 00:11:43;;;;;;;;;;;;;;;25.56;54.51;98606.66;2084502;28;20317;-55
2022/06/01 00:12:44;;;;;;;;;;;;;;;25.56;54.49;98599.34;2084747;28;19940;-55
2022/06/01 00:13:46;;;;;;;;;;;;;;;25.56;54.69;98604.78;2082787;28;19939;-55
2022/06/01 00:14:46;;;;;;;;;;;;;;;25.57;54.52;98605.59;2083858;28;19933;-54
2022/06/01 00:15:48;;;;;;;;;;;;;;;25.57;54.45;98603.69;2087929;28;20422;-54
2022/06/01 00:16:52;;;;;;;;;;;;;;;25.56;54.78;98604.78;2084808;28;19928;-55
2022/06/01 00:17:56;;;;;;;;;;;;;;;25.57;54.83;98603.69;2086612;28;20720;-55
2022/06/01 00:18:58;;;;;;;;;;;;;;;25.56;54.92;98601.25;2086711;28;20990;-55
2022/06/01 00:19:59;;;;;;;;;;;;;;;25.57;54.74;98608.31;2086042;28;19932;-54
2022/06/01 00:21:01;;;;;;;;;;;;;;;25.55;54.89;98608.56;2085131;28;19929;-55
2022/06/01 00:22:14;;;;;;;;;;;;;;;25.56;54.89;98606.66;2087688;28;20390;-54
2022/06/01 00:23:15;;;;;;;;;;;;;;;25.56;54.58;98604.78;2086380;28;19928;-56
2022/06/01 00:24:16;;;;;;;;;;;;;;;25.56;54.60;98612.91;2087271;28;19925;-55
2022/06/01 00:25:18;;;;;;;;;;;;;;;25.55;54.94;98605.84;2085982;28;19933;-56
2022/06/01 00:26:18;;;;;;;;;;;;;;;25.55;54.56;98605.84;2085081;28;19928;-55
2022/06/01 00:27:20;;;;;;;;;;;;;;;25.55;54.63;98605.03;2084935;28;20439;-55
2022/06/01 00:28:21;;;;;;;;;;;;;;;25.55;54.94;98603.13;2083228;28;19929;-54
2022/06/01 00:29:22;;;;;;;;;;;;;;;25.54;54.98;98604.19;2080340;28;19935;-56
2022/06/01 00:30:24;;;;;;;;;;;;;;;25.54;54.74;98604.19;2083276;28;19925;-55
2022/06/01 00:31:24;;;;;;;;;;;;;;;25.53;54.92;98602.56;2087475;28;20349;-54
2022/06/01 00:32:25;;;;;;;;;;;;;;;25.53;55.02;98610.69;2087396;28;19929;-54
2022/06/01 00:33:26;;;;;;;;;;;;;;;25.53;54.69;98610.69;2086100;28;20682;-54
2022/06/01 00:34:30;;;;;;;;;;;;;;;25.54;54.82;98615.06;2087067;28;19936;-53
2022/06/01 00:35:31;;;;;;;;;;;;;;;25.53;54.80;98618.84;2086281;28;19929;-54
2022/06/01 00:36:32;;;;;;;;;;;;;;;25.54;54.68;98615.06;2086148;28;19931;-55
2022/06/01 00:37:34;;;;;;;;;;;;;;;25.54;55.00;98616.94;2074994;28;19974;-54
2022/06/01 00:38:36;;;;;;;;;;;;;;;25.55;54.73;98619.44;2081510;28;20469;-53
2022/06/01 00:39:37;;;;;;;;;;;;;;;25.54;55.02;98625.09;2086148;28;19939;-55
2022/06/01 00:40:38;;;;;;;;;;;;;;;25.55;54.97;98615.91;2086023;28;19929;-55
2022/06/01 00:41:39;;;;;;;;;;;;;;;25.54;55.07;98617.75;2084609;28;19928;-56
2022/06/01 00:42:41;;;;;;;;;;;;;;;25.54;54.75;98612.34;2086503;28;19929;-53
2022/06/01 00:43:44;;;;;;;;;;;;;;;25.55;54.84;98619.44;2078579;28;22561;-56
2022/06/01 00:44:46;;;;;;;;;;;;;;;25.55;54.90;98624.03;2085508;28;19960;-55
2022/06/01 00:45:46;;;;;;;;;;;;;;;25.55;54.94;98626.75;2084369;28;20292;-56
2022/06/01 00:46:48;;;;;;;;;;;;;;;25.55;55.01;98616.72;2087401;28;19939;-55
2022/06/01 00:47:49;;;;;;;;;;;;;;;25.55;54.84;98622.16;2086888;28;19978;-55
2022/06/01 00:48:53;;;;;;;;;;;;;;;25.55;55.01;98619.44;2084359;28;19929;-55
2022/06/01 00:49:58;;;;;;;;;;;;;;;25.54;54.87;98615.06;2084770;28;19933;-54
2022/06/01 00:51:00;;;;;;;;;;;;;;;25.55;55.00;98622.16;2086801;28;19939;-53
2022/06/01 00:52:01;;;;;;;;;;;;;;;25.54;54.92;98620.47;2087008;28;19929;-56
2022/06/01 00:53:05;;;;;;;;;;;;;;;25.54;54.62;98615.06;2085100;28;20016;-55
2022/06/01 00:54:06;;;;;;;;;;;;;;;25.53;55.06;98613.41;2083667;28;19929;-56
2022/06/01 00:55:11;;;;;;;;;;;;;;;25.54;54.72;98615.06;2086826;28;20765;-54
2022/06/01 00:56:15;;;;;;;;;;;;;;;25.55;55.08;98616.72;2083998;28;19948;-55
2022/06/01 00:57:16;;;;;;;;;;;;;;;25.54;54.99;98611.53;2087342;28;19929;-55
2022/06/01 00:58:20;;;;;;;;;;;;;;;25.56;54.68;98620.25;2086835;28;19932;-55
2022/06/01 00:59:22;;;;;;;;;;;;;;;25.55;55.01;98619.44;2082160;28;19928;-54
2022/06/01 01:00:25;;;;;;;;;;;;;;;25.54;54.64;98625.91;2087181;28;19932;-56
2022/06/01 01:01:26;;;;;;;;;;;;;;;25.53;54.85;98618.84;2089360;28;19935;-53
2022/06/01 01:02:29;;;;;;;;;;;;;;;25.53;54.92;98618.84;2084012;28;19932;-55
2022/06/01 01:03:33;;;;;;;;;;;;;;;25.53;54.94;98620.75;2086574;28;19935;-55
2022/06/01 01:04:35;;;;;;;;;;;;;;;25.52;55.09;98617.22;2086861;28;19924;-56
2022/06/01 01:05:40;;;;;;;;;;;;;;;25.53;55.00;98612.59;2086280;28;20196;-55
2022/06/01 01:06:42;;;;;;;;;;;;;;;25.52;54.87;98616.38;2088795;28;20406;-54
2022/06/01 01:07:44;;;;;;;;;;;;;;;25.54;55.15;98614.22;2088629;28;19935;-54
2022/06/01 01:08:47;;;;;;;;;;;;;;;25.52;55.04;98617.22;2081076;28;19936;-54
2022/06/01 01:09:48;;;;;;;;;;;;;;;25.53;55.07;98616.13;2088686;28;19935;-55
2022/06/01 01:10:49;;;;;;;;;;;;;;;25.52;54.81;98611.78;2084138;28;19948;-55
2022/06/01 01:11:52;;;;;;;;;;;;;;;25.54;54.86;98614.22;2087848;28;19928;-55
2022/06/01 01:12:57;;;;;;;;;;;;;;;25.52;54.72;98613.66;2085253;28;19960;-56
2022/06/01 01:13:59;;;;;;;;;;;;;;;25.54;54.86;98617.75;2086186;28;19932;-55
2022/06/01 01:15:01;;;;;;;;;;;;;;;25.53;54.67;98613.41;2086660;28;19928;-54
2022/06/01 01:16:03;;;;;;;;;;;;;;;25.53;54.78;98616.13;2087852;28;19928;-54
2022/06/01 01:17:05;;;;;;;;;;;;;;;25.52;54.73;98614.50;2086615;28;19941;-55
2022/06/01 01:18:09;;;;;;;;;;;;;;;25.53;55.10;98609.88;2088728;28;19928;-56
2022/06/01 01:19:16;;;;;;;;;;;;;;;25.52;54.78;98609.06;2087574;28;19940;-55
2022/06/01 01:20:18;;;;;;;;;;;;;;;25.54;54.66;98620.47;2085710;28;19928;-56
2022/06/01 01:21:26;;;;;;;;;;;;;;;25.53;55.11;98618.03;2086750;28;19929;-54
2022/06/01 01:22:36;;;;;;;;;;;;;;;25.52;55.12;98624.53;2088489;28;19932;-52
2022/06/01 01:23:40;;;;;;;;;;;;;;;25.51;55.04;98623.69;2087486;28;19932;-56
2022/06/01 01:24:46;;;;;;;;;;;;;;;25.52;54.81;98616.38;2088115;28;19936;-54
2022/06/01 01:25:49;;;;;;;;;;;;;;;25.51;55.10;98620.97;2088091;28;20666;-55
2022/06/01 01:26:50;;;;;;;;;;;;;;;25.52;55.07;98621.81;2086385;28;19936;-53
2022/06/01 01:27:53;;;;;;;;;;;;;;;25.52;55.13;98622.66;2085859;28;20023;-55
2022/06/01 01:28:55;;;;;;;;;;;;;;;25.52;54.72;98617.22;2086478;28;19940;-56
2022/06/01 01:29:56;;;;;;;;;;;;;;;25.50;54.90;98623.97;2086032;28;19939;-55
2022/06/01 01:31:01;;;;;;;;;;;;;;;25.52;54.83;98628.06;2086636;28;19978;-54
2022/06/01 01:32:02;;;;;;;;;;;;;;;25.51;54.81;98623.69;2089109;28;19928;-56
2022/06/01 01:33:04;;;;;;;;;;;;;;;25.50;55.06;98632.94;2088238;28;19975;-54
2022/06/01 01:34:06;;;;;;;;;;;;;;;25.50;55.21;98624.78;2087538;28;19933;-55
2022/06/01 01:35:06;;;;;;;;;;;;;;;25.51;55.03;98625.59;2088329;28;19933;-55
2022/06/01 01:36:10;;;;;;;;;;;;;;;25.51;54.81;98620.97;2083723;28;19928;-54
2022/06/01 01:37:14;;;;;;;;;;;;;;;25.52;55.19;98624.53;2088407;28;19928;-54
2022/06/01 01:38:19;;;;;;;;;;;;;;;25.52;55.04;98621.81;2087071;28;19933;-56
2022/06/01 01:39:19;;;;;;;;;;;;;;;25.50;55.29;98624.78;2088282;28;19940;-54
2022/06/01 01:40:25;;;;;;;;;;;;;;;25.49;55.00;98622.31;2087574;28;20606;-53
2022/06/01 01:41:30;;;;;;;;;;;;;;;25.50;55.32;98626.69;2087418;28;20055;-54
2022/06/01 01:42:30;;;;;;;;;;;;;;;25.50;55.20;98623.97;2084793;28;22063;-54
2022/06/01 01:43:33;;;;;;;;;;;;;;;25.51;55.33;98628.31;2087804;28;19928;-56
2022/06/01 01:44:37;;;;;;;;;;;;;;;25.49;54.99;98625.03;2083357;28;19937;-55
2022/06/01 01:45:38;;;;;;;;;;;;;;;25.48;55.36;98616.06;2084859;28;20845;-56
2022/06/01 01:46:39;;;;;;;;;;;;;;;25.48;55.48;98626.09;2085251;28;19935;-56
2022/06/01 01:47:40;;;;;;;;;;;;;;;25.49;55.33;98630.44;2086306;28;19939;-55
2022/06/01 01:48:42;;;;;;;;;;;;;;;25.48;55.10;98629.63;2085860;28;19924;-54
2022/06/01 01:49:43;;;;;;;;;;;;;;;25.49;55.30;98625.03;2089504;28;19924;-55
2022/06/01 01:50:44;;;;;;;;;;;;;;;25.48;55.38;98620.66;2088065;28;19929;-53
2022/06/01 01:51:45;;;;;;;;;;;;;;;25.48;55.18;98624.19;2087085;28;19932;-54
2022/06/01 01:52:46;;;;;;;;;;;;;;;25.49;55.17;98623.16;2086126;28;19929;-54
2022/06/01 01:53:48;;;;;;;;;;;;;;;25.48;55.34;98626.91;2086514;28;19939;-55
2022/06/01 01:54:52;;;;;;;;;;;;;;;25.49;55.42;98625.88;2087441;28;19928;-54
2022/06/01 01:56:01;;;;;;;;;;;;;;;25.48;55.23;98629.63;2088401;28;19978;-55
2022/06/01 01:57:15;;;;;;;;;;;;;;;25.49;55.28;98623.16;2087117;28;19924;-56
2022/06/01 01:58:21;;;;;;;;;;;;;;;25.48;55.40;98623.38;2087322;28;19929;-53
2022/06/01 01:59:31;;;;;;;;;;;;;;;25.48;55.38;98624.19;2085915;28;20454;-56
2022/06/01 02:00:35;;;;;;;;;;;;;;;25.49;55.38;98627.72;2084130;28;19936;-57
2022/06/01 02:01:41;;;;;;;;;;;;;;;25.49;55.11;98635.88;2083323;28;20023;-56
2022/06/01 02:02:45;;;;;;;;;;;;;;;25.48;55.14;98626.91;2085140;28;20023;-57
2022/06/01 02:03:49;;;;;;;;;;;;;;;25.47;55.29;98630.72;2088714;28;19928;-56
2022/06/01 02:06:12;;;;;;;;;;;;;;;25.49;55.10;98630.44;2061310;28;19926;-55
2022/06/01 02:07:17;;;;;;;;;;;;;;;25.48;55.23;98639.69;2080927;28;19937;-56
2022/06/01 02:08:23;;;;;;;;;;;;;;;25.47;55.43;98635.34;2087531;28;19940;-51
2022/06/01 02:09:25;;;;;;;;;;;;;;;25.47;55.44;98635.34;2083339;28;19983;-57
2022/06/01 02:13:09;;;;;;;;;;;;;;;25.47;55.11;98633.44;2087894;28;19960;-55
2022/06/01 02:14:14;;;;;;;;;;;;;;;25.46;55.08;98634.47;2084032;28;20025;-55
2022/06/01 02:15:19;;;;;;;;;;;;;;;25.47;55.38;98636.16;2083646;28;19956;-55
2022/06/01 02:16:21;;;;;;;;;;;;;;;25.49;55.38;98639.44;2083860;28;20032;-55
2022/06/01 02:17:25;;;;;;;;;;;;;;;25.46;55.31;98639.09;2082925;28;19928;-53
2022/06/01 02:18:30;;;;;;;;;;;;;;;25.47;55.09;98635.34;2086822;28;19936;-54
2022/06/01 02:19:33;;;;;;;;;;;;;;;25.46;55.42;98634.47;2087298;28;19936;-55
2022/06/01 02:20:38;;;;;;;;;;;;;;;25.46;55.28;98639.91;2088014;28;19928;-52
2022/06/01 02:21:38;;;;;;;;;;;;;;;25.46;55.48;98639.09;2085886;28;20376;-54
2022/06/01 02:22:41;;;;;;;;;;;;;;;25.46;55.40;98642.63;2082509;28;19928;-54
2022/06/01 02:23:41;;;;;;;;;;;;;;;25.44;55.47;98633.94;2083114;28;19928;-57
2022/06/01 02:24:44;;;;;;;;;;;;;;;25.46;55.28;98633.66;2087847;28;19928;-53
2022/06/01 02:25:47;;;;;;;;;;;;;;;25.47;55.45;98636.16;2087320;28;19939;-53
2022/06/01 02:26:49;;;;;;;;;;;;;;;25.46;55.21;98634.47;2087840;28;19978;-55
2022/06/01 02:27:51;;;;;;;;;;;;;;;25.45;55.12;98622.00;2088134;28;19940;-54
2022/06/01 02:28:56;;;;;;;;;;;;;;;25.44;55.44;98631.22;2086639;28;20590;-55
2022/06/01 02:30:00;;;;;;;;;;;;;;;25.45;55.22;98632.84;2081072;28;19932;-55
2022/06/01 02:31:02;;;;;;;;;;;;;;;25.44;55.43;98631.22;2078491;28;19932;-57
2022/06/01 02:32:03;;;;;;;;;;;;;;;25.45;55.47;98632.03;2085347;28;20508;-55
2022/06/01 02:33:07;;;;;;;;;;;;;;;25.44;55.45;98628.50;2085957;28;19933;-56
2022/06/01 02:34:08;;;;;;;;;;;;;;;25.45;55.49;98632.03;2088720;28;19990;-56
2022/06/01 02:35:12;;;;;;;;;;;;;;;25.44;55.17;98631.22;2087131;28;20321;-53
2022/06/01 02:36:16;;;;;;;;;;;;;;;25.45;55.18;98626.59;2084149;28;19932;-51
2022/06/01 02:37:17;;;;;;;;;;;;;;;25.45;55.09;98615.75;2087475;28;20027;-57
2022/06/01 02:38:21;;;;;;;;;;;;;;;25.44;55.29;98625.78;2087042;28;21120;-54
2022/06/01 02:39:24;;;;;;;;;;;;;;;25.44;55.38;98624.97;2085249;28;19983;-53
2022/06/01 02:40:26;;;;;;;;;;;;;;;25.44;55.40;98625.78;2084854;28;19924;-54
2022/06/01 02:42:47;;;;;;;;;;;;;;;25.43;55.05;98613.25;2083744;28;20531;-55
2022/06/01 02:43:48;;;;;;;;;;;;;;;25.44;55.49;98619.53;2087027;28;20027;-54
2022/06/01 02:44:51;;;;;;;;;;;;;;;25.43;55.24;98613.25;2083260;28;19936;-56
2022/06/01 02:45:51;;;;;;;;;;;;;;;25.42;55.56;98614.34;2083047;28;20006;-54
2022/06/01 02:46:53;;;;;;;;;;;;;;;25.43;55.27;98615.97;2085326;28;19928;-55
2022/06/01 02:47:55;;;;;;;;;;;;;;;25.42;55.49;98617.06;2084211;28;19939;-57
2022/06/01 02:48:56;;;;;;;;;;;;;;;25.44;55.56;98619.53;2085655;28;19935;-53
2022/06/01 02:49:58;;;;;;;;;;;;;;;25.44;55.30;98608.69;2086445;28;19933;-57
2022/06/01 02:51:00;;;;;;;;;;;;;;;25.42;55.34;98615.16;2088190;28;20466;-53
2022/06/01 02:52:01;;;;;;;;;;;;;;;25.41;55.60;98610.00;2084759;28;19928;-56
2022/06/01 02:53:03;;;;;;;;;;;;;;;25.41;55.28;98613.53;2085699;28;19925;-56
2022/06/01 02:54:03;;;;;;;;;;;;;;;25.41;55.38;98613.53;2084828;28;19955;-56
2022/06/01 02:55:06;;;;;;;;;;;;;;;25.40;55.47;98608.34;2083526;28;19928;-53
2022/06/01 02:56:06;;;;;;;;;;;;;;;25.40;55.30;98608.34;2083957;28;20025;-56
2022/06/01 02:57:08;;;;;;;;;;;;;;;25.42;55.35;98617.06;2085572;28;19933;-54
2022/06/01 02:58:09;;;;;;;;;;;;;;;25.42;55.63;98617.06;2087247;28;19935;-54
2022/06/01 02:59:10;;;;;;;;;;;;;;;25.41;55.67;98616.25;2087172;28;19933;-55
2022/06/01 03:00:17;;;;;;;;;;;;;;;25.41;55.75;98620.84;2081323;28;19924;-56
2022/06/01 03:01:18;;;;;;;;;;;;;;;25.43;55.62;98613.25;2081746;28;19933;-54
2022/06/01 03:02:19;;;;;;;;;;;;;;;25.40;55.63;98609.16;2084657;28;19928;-52
2022/06/01 03:03:21;;;;;;;;;;;;;;;25.40;55.42;98609.16;2085716;28;19936;-56
2022/06/01 03:04:21;;;;;;;;;;;;;;;25.41;55.32;98610.00;2086289;28;19971;-55
2022/06/01 03:05:24;;;;;;;;;;;;;;;25.41;55.46;98621.66;2088254;28;19940;-56
2022/06/01 03:06:25;;;;;;;;;;;;;;;25.41;55.56;98612.72;2086805;28;19933;-57
2022/06/01 03:07:26;;;;;;;;;;;;;;;25.41;55.32;98610.00;2086864;28;19929;-53
2022/06/01 03:08:27;;;;;;;;;;;;;;;25.40;55.73;98611.84;2086251;28;20857;-54
2022/06/01 03:09:28;;;;;;;;;;;;;;;25.41;55.51;98615.41;2083694;28;19943;-54
2022/06/01 03:10:29;;;;;;;;;;;;;;;25.39;55.71;98618.38;2085797;28;19928;-54
2022/06/01 03:11:31;;;;;;;;;;;;;;;25.40;55.72;98624.63;2084276;28;19946;-56
2022/06/01 03:12:31;;;;;;;;;;;;;;;25.41;55.62;98620.84;2084585;28;19936;-55
2022/06/01 03:13:33;;;;;;;;;;;;;;;25.40;55.72;98624.63;2084631;28;20520;-54
2022/06/01 03:14:33;;;;;;;;;;;;;;;25.38;55.84;98622.16;2079878;28;19928;-55
2022/06/01 03:15:36;;;;;;;;;;;;;;;25.39;55.53;98623.00;2084569;28;19924;-56
2022/06/01 03:16:37;;;;;;;;;;;;;;;25.38;55.72;98622.16;2086078;28;20298;-52
2022/06/01 03:17:39;;;;;;;;;;;;;;;25.39;55.74;98623.81;2087128;28;19935;-52
2022/06/01 03:18:39;;;;;;;;;;;;;;;25.39;55.61;98625.69;2086582;28;19960;-53
2022/06/01 03:19:41;;;;;;;;;;;;;;;25.38;55.77;98624.03;2086283;28;20566;-53
2022/06/01 03:20:42;;;;;;;;;;;;;;;25.40;55.74;98621.91;2086710;28;19928;-53
2022/06/01 03:21:43;;;;;;;;;;;;;;;25.41;55.49;98623.56;2084841;28;19935;-55
2022/06/01 03:22:44;;;;;;;;;;;;;;;25.39;55.65;98618.38;2085914;28;19948;-54
2022/06/01 03:23:46;;;;;;;;;;;;;;;25.40;55.51;98624.63;2085608;28;19964;-55
2022/06/01 03:24:47;;;;;;;;;;;;;;;25.39;55.67;98621.09;2087902;28;19931;-55
2022/06/01 03:25:48;;;;;;;;;;;;;;;25.38;55.69;98621.31;2085686;28;20803;-55
2022/06/01 03:26:49;;;;;;;;;;;;;;;25.39;55.68;98628.41;2087261;28;20004;-51
2022/06/01 03:27:51;;;;;;;;;;;;;;;25.39;55.63;98633.84;2086802;28;19935;-56
2022/06/01 03:28:51;;;;;;;;;;;;;;;25.37;55.67;98628.66;2083880;28;19977;-58
2022/06/01 03:29:53;;;;;;;;;;;;;;;25.37;55.47;98635.97;2082635;28;20278;-57
2022/06/01 03:30:55;;;;;;;;;;;;;;;25.37;55.92;98633.25;2085042;28;19932;-54
2022/06/01 03:31:58;;;;;;;;;;;;;;;25.37;55.45;98631.38;2087620;28;20408;-52
2022/06/01 03:33:00;;;;;;;;;;;;;;;25.38;55.73;98629.47;2087268;28;19925;-56
2022/06/01 03:34:00;;;;;;;;;;;;;;;25.37;55.82;98627.84;2087886;28;19936;-54
2022/06/01 03:35:02;;;;;;;;;;;;;;;25.37;55.42;98630.56;2085968;28;20691;-55
2022/06/01 03:36:02;;;;;;;;;;;;;;;25.37;55.50;98631.38;2088499;28;19929;-57
2022/06/01 03:37:04;;;;;;;;;;;;;;;25.37;55.78;98633.25;2087128;28;19955;-54
2022/06/01 03:38:05;;;;;;;;;;;;;;;25.37;55.46;98635.97;2085583;28;19956;-55
2022/06/01 03:39:06;;;;;;;;;;;;;;;25.37;55.49;98634.09;2085656;28;20390;-55
2022/06/01 03:40:07;;;;;;;;;;;;;;;25.37;55.82;98630.56;2085862;28;19935;-54
2022/06/01 03:41:09;;;;;;;;;;;;;;;25.36;55.53;98640.59;2086050;28;20337;-56
2022/06/01 03:42:10;;;;;;;;;;;;;;;25.37;55.62;98635.97;2085749;28;20416;-55
2022/06/01 03:43:12;;;;;;;;;;;;;;;25.37;55.90;98641.41;2085496;28;19932;-55
2022/06/01 03:46:53;;;;;;;;;;;;;;;25.36;55.53;98643.31;2082633;28;19972;-54
2022/06/01 03:47:55;;;;;;;;;;;;;;;25.36;55.61;98639.78;2085834;28;19929;-55
2022/06/01 03:48:56;;;;;;;;;;;;;;;25.36;55.62;98642.50;2086054;28;20676;-56
2022/06/01 03:49:57;;;;;;;;;;;;;;;25.35;55.60;98648.97;2087720;28;19994;-56
2022/06/01 03:50:58;;;;;;;;;;;;;;;25.35;55.91;98643.53;2088167;28;20299;-55
2022/06/01 03:52:00;;;;;;;;;;;;;;;25.34;55.95;98644.63;2083806;28;19929;-55
2022/06/01 03:53:02;;;;;;;;;;;;;;;25.35;55.89;98643.53;2087740;28;19928;-54
2022/06/01 03:54:04;;;;;;;;;;;;;;;25.35;55.71;98644.38;2083721;28;20047;-54
2022/06/01 03:55:05;;;;;;;;;;;;;;;25.35;55.85;98647.09;2088291;28;20450;-54
2022/06/01 03:56:08;;;;;;;;;;;;;;;25.36;55.74;98647.91;2083755;28;19932;-55
2022/06/01 03:57:08;;;;;;;;;;;;;;;25.35;55.72;98643.53;2088102;28;19950;-56
2022/06/01 03:58:12;;;;;;;;;;;;;;;25.35;55.98;98646.25;2085821;28;21610;-56
2022/06/01 03:59:13;;;;;;;;;;;;;;;25.35;55.69;98643.53;2086157;28;19933;-54
2022/06/01 04:00:16;;;;;;;;;;;;;;;25.34;55.79;98648.16;2082764;28;19925;-55
2022/06/01 04:01:17;;;;;;;;;;;;;;;25.33;56.03;98651.94;2087454;28;19929;-56
2022/06/01 04:02:20;;;;;;;;;;;;;;;25.34;55.72;98655.47;2087714;28;19929;-55
2022/06/01 04:03:21;;;;;;;;;;;;;;;25.33;55.72;98653.84;2086438;28;19934;-53
2022/06/01 04:04:23;;;;;;;;;;;;;;;25.32;56.07;98655.72;2086423;28;19936;-56
2022/06/01 04:05:23;;;;;;;;;;;;;;;25.33;55.77;98656.56;2088083;28;19936;-54
2022/06/01 04:06:25;;;;;;;;;;;;;;;25.34;55.79;98655.47;2088841;28;19929;-53
2022/06/01 04:07:26;;;;;;;;;;;;;;;25.34;55.98;98663.63;2086022;28;19936;-55
2022/06/01 04:08:27;;;;;;;;;;;;;;;25.31;56.04;98662.22;2087029;28;19951;-55
2022/06/01 04:09:29;;;;;;;;;;;;;;;25.32;56.18;98657.63;2086604;28;20014;-55
2022/06/01 04:10:30;;;;;;;;;;;;;;;25.31;55.96;98658.69;2083348;28;20005;-55
2022/06/01 04:11:32;;;;;;;;;;;;;;;25.32;55.98;98660.31;2084409;28;20410;-56
2022/06/01 04:12:33;;;;;;;;;;;;;;;25.32;55.90;98665.75;2083813;28;19929;-55
2022/06/01 04:13:35;;;;;;;;;;;;;;;25.33;55.78;98664.72;2087126;28;19928;-55
2022/06/01 04:14:36;;;;;;;;;;;;;;;25.32;56.06;98660.31;2085719;28;19929;-56
2022/06/01 04:15:38;;;;;;;;;;;;;;;25.32;55.80;98663.03;2084034;28;20389;-61
2022/06/01 04:16:38;;;;;;;;;;;;;;;25.31;56.06;98664.94;2084285;28;19940;-55
2022/06/01 04:17:41;;;;;;;;;;;;;;;25.31;56.00;98664.94;2085090;28;19979;-54
2022/06/01 04:18:42;;;;;;;;;;;;;;;25.31;56.11;98664.94;2085860;28;20382;-56
2022/06/01 04:19:43;;;;;;;;;;;;;;;25.32;56.03;98668.47;2087913;28;19924;-55
2022/06/01 04:20:45;;;;;;;;;;;;;;;25.30;56.09;98668.75;2088195;28;19928;-55
2022/06/01 04:21:48;;;;;;;;;;;;;;;25.30;56.06;98671.44;2086942;28;19929;-56
2022/06/01 04:22:49;;;;;;;;;;;;;;;25.30;55.87;98670.63;2087880;28;19925;-56
2022/06/01 04:23:51;;;;;;;;;;;;;;;25.29;56.20;98672.50;2087470;28;19928;-56
2022/06/01 04:24:51;;;;;;;;;;;;;;;25.30;56.06;98667.91;2087387;28;19976;-55
2022/06/01 04:25:53;;;;;;;;;;;;;;;25.30;56.21;98673.34;2081359;28;19928;-54
2022/06/01 04:26:54;;;;;;;;;;;;;;;25.30;55.85;98674.16;2087020;28;19929;-55
2022/06/01 04:27:55;;;;;;;;;;;;;;;25.31;56.05;98674.97;2082706;28;20485;-58
2022/06/01 04:28:56;;;;;;;;;;;;;;;25.30;56.11;98679.59;2081113;28;19928;-57
2022/06/01 04:29:57;;;;;;;;;;;;;;;25.29;56.08;98677.94;2085484;28;19939;-54
2022/06/01 04:30:59;;;;;;;;;;;;;;;25.29;56.21;98677.13;2086561;28;19928;-57
2022/06/01 04:32:02;;;;;;;;;;;;;;;25.29;56.15;98683.34;2087301;28;19935;-55
2022/06/01 04:33:04;;;;;;;;;;;;;;;25.29;55.87;98677.94;2087321;28;19929;-53
2022/06/01 04:34:06;;;;;;;;;;;;;;;25.28;55.93;98678.19;2086838;28;19925;-52
2022/06/01 04:35:07;;;;;;;;;;;;;;;25.29;56.12;98677.94;2089091;28;19932;-56
2022/06/01 04:36:08;;;;;;;;;;;;;;;25.29;55.95;98677.13;2089260;28;20268;-54
2022/06/01 04:37:09;;;;;;;;;;;;;;;25.28;56.32;98672.75;2090323;28;20497;-55
2022/06/01 04:38:13;;;;;;;;;;;;;;;25.28;55.96;98676.28;2089277;28;19939;-55
2022/06/01 04:39:14;;;;;;;;;;;;;;;25.28;56.01;98684.44;2087999;28;19935;-54
2022/06/01 04:40:16;;;;;;;;;;;;;;;25.28;56.21;98676.28;2088434;28;19929;-57
2022/06/01 04:41:17;;;;;;;;;;;;;;;25.28;55.87;98680.91;2090340;28;19928;-58
2022/06/01 04:42:18;;;;;;;;;;;;;;;25.28;55.88;98683.63;2090176;28;19939;-59
2022/06/01 04:43:21;;;;;;;;;;;;;;;25.28;56.12;98675.47;2082868;28;19938;-57
2022/06/01 04:44:22;;;;;;;;;;;;;;;25.27;56.21;98679.25;2083330;28;19932;-56
2022/06/01 04:45:24;;;;;;;;;;;;;;;25.27;56.09;98682.81;2089386;28;19931;-54
2022/06/01 04:46:24;;;;;;;;;;;;;;;25.27;56.12;98674.66;2088641;28;19936;-56
2022/06/01 04:47:26;;;;;;;;;;;;;;;25.27;56.20;98680.09;2089265;28;20037;-55
2022/06/01 04:48:28;;;;;;;;;;;;;;;25.27;56.21;98673.81;2088333;28;20789;-56
2022/06/01 04:49:30;;;;;;;;;;;;;;;25.27;56.02;98671.94;2088036;28;19932;-55
2022/06/01 04:50:30;;;;;;;;;;;;;;;25.28;56.23;98680.91;2089316;28;19936;-56
2022/06/01 04:51:32;;;;;;;;;;;;;;;25.26;56.10;98686.56;2087692;28;19932;-55
2022/06/01 04:52:32;;;;;;;;;;;;;;;25.27;56.17;98682.81;2088339;28;19924;-54
2022/06/01 04:53:34;;;;;;;;;;;;;;;25.26;55.91;98681.13;2083243;28;20608;-53
2022/06/01 04:54:35;;;;;;;;;;;;;;;25.27;55.87;98681.97;2084032;28;19928;-52
2022/06/01 04:55:36;;;;;;;;;;;;;;;25.27;55.88;98688.25;2086860;28;20558;-57
2022/06/01 04:56:38;;;;;;;;;;;;;;;25.27;56.09;98690.09;2085451;28;19928;-53
2022/06/01 04:57:39;;;;;;;;;;;;;;;25.26;56.17;98681.13;2081914;28;19940;-55
2022/06/01 04:58:41;;;;;;;;;;;;;;;25.25;56.29;98687.66;2083664;28;19929;-56
2022/06/01 04:59:41;;;;;;;;;;;;;;;25.25;56.26;98689.53;2085759;28;19929;-53
2022/06/01 05:00:44;;;;;;;;;;;;;;;25.25;56.14;98684.13;2085971;28;20268;-56
2022/06/01 05:01:44;;;;;;;;;;;;;;;25.25;56.24;98690.38;2087761;28;19932;-54
2022/06/01 05:02:46;;;;;;;;;;;;;;;25.24;56.29;98691.44;2088475;28;20546;-54
2022/06/01 05:03:48;;;;;;;;;;;;;;;25.25;56.22;98697.69;2087731;28;19929;-56
2022/06/01 05:04:49;;;;;;;;;;;;;;;25.26;56.24;98693.91;2087807;28;19924;-56
2022/06/01 05:05:50;;;;;;;;;;;;;;;25.26;56.11;98699.31;2086497;28;19929;-53
2022/06/01 05:06:51;;;;;;;;;;;;;;;25.26;56.09;98699.31;2087546;28;19976;-56
2022/06/01 05:07:52;;;;;;;;;;;;;;;25.25;56.22;98697.69;2086669;28;20005;-56
2022/06/01 05:08:53;;;;;;;;;;;;;;;25.25;56.07;98700.41;2087707;28;19929;-55
2022/06/01 05:09:54;;;;;;;;;;;;;;;25.25;55.91;98703.13;2084740;28;19933;-54
2022/06/01 05:10:56;;;;;;;;;;;;;;;25.25;56.21;98695.78;2087591;28;20516;-55
2022/06/01 05:11:56;;;;;;;;;;;;;;;25.25;56.06;98708.56;2082893;28;20925;-54
2022/06/01 05:12:58;;;;;;;;;;;;;;;25.25;56.14;98708.56;2084424;28;19932;-56
2022/06/01 05:13:59;;;;;;;;;;;;;;;25.25;55.94;98706.66;2083363;28;19938;-57
2022/06/01 05:15:00;;;;;;;;;;;;;;;25.24;55.96;98706.88;2087634;28;19929;-54
2022/06/01 05:16:01;;;;;;;;;;;;;;;25.22;56.19;98709.84;2085852;28;20502;-56
2022/06/01 05:17:03;;;;;;;;;;;;;;;25.22;56.16;98707.16;2086328;28;19935;-58
2022/06/01 05:18:09;;;;;;;;;;;;;;;25.23;56.31;98706.06;2083834;28;19928;-53
2022/06/01 05:19:11;;;;;;;;;;;;;;;25.22;56.10;98704.44;2086780;28;20013;-54
2022/06/01 05:20:13;;;;;;;;;;;;;;;25.23;56.33;98710.69;2086764;28;19936;-55
2022/06/01 05:21:14;;;;;;;;;;;;;;;25.22;56.33;98704.44;2086549;28;19971;-53
2022/06/01 05:22:15;;;;;;;;;;;;;;;25.21;56.07;98702.75;2086596;28;20927;-55
2022/06/01 05:23:17;;;;;;;;;;;;;;;25.24;56.20;98712.31;2085748;28;19929;-56
2022/06/01 05:24:19;;;;;;;;;;;;;;;25.23;56.01;98702.53;2089618;28;19929;-54
2022/06/01 05:25:21;;;;;;;;;;;;;;;25.22;56.10;98706.31;2083074;28;19929;-57
2022/06/01 05:26:23;;;;;;;;;;;;;;;25.22;56.36;98714.47;2084205;28;19928;-55
2022/06/01 05:27:23;;;;;;;;;;;;;;;25.22;56.32;98711.75;2085122;28;19929;-56
2022/06/01 05:28:26;;;;;;;;;;;;;;;25.23;56.23;98713.38;2085248;28;20092;-57
2022/06/01 05:29:27;;;;;;;;;;;;;;;25.21;55.90;98716.34;2083113;28;19928;-57
2022/06/01 05:30:29;;;;;;;;;;;;;;;25.21;56.33;98719.06;2085090;28;19978;-54
2022/06/01 05:31:30;;;;;;;;;;;;;;;25.22;56.11;98714.47;2085333;28;19941;-54